sensor_id;sensor_type;location;lat;lon;timestamp;pressure;altitude;pressure_sealevel;temperature
70819;BMP280;58439;51.046;13.692;2022-09-13T00:00:22;99881.72;;;13.02
70819;BMP280;58439;51.046;13.692;2022-09-13T00:06:49;99874.03;;;13.00
70819;BMP280;58439;51.046;13.692;2022-09-13T00:09:31;99872.66;;;12.98
70819;BMP280;58439;51.046;13.692;2022-09-13T00:12:04;99869.63;;;12.94
70819;BMP280;58439;51.046;13.692;2022-09-13T00:14:32;99870.69;;;12.93
70819;BMP280;58439;51.046;13.692;2022-09-13T00:17:09;99864.03;;;12.91
70819;BMP280;58439;51.046;13.692;2022-09-13T00:19:51;99857.97;;;12.90
70819;BMP280;58439;51.046;13.692;2022-09-13T00:22:27;99864.44;;;12.88
70819;BMP280;58439;51.046;13.692;2022-09-13T00:24:54;99864.84;;;12.85
70819;BMP280;58439;51.046;13.692;2022-09-13T00:27:22;99859.81;;;12.83
70819;BMP280;58439;51.046;13.692;2022-09-13T00:29:49;99855.78;;;12.81
70819;BMP280;58439;51.046;13.692;2022-09-13T00:32:18;99852.16;;;12.82
70819;BMP280;58439;51.046;13.692;2022-09-13T00:34:47;99843.13;;;12.78
70819;BMP280;58439;51.046;13.692;2022-09-13T00:37:16;99839.69;;;12.77
70819;BMP280;58439;51.046;13.692;2022-09-13T00:39:52;99829.59;;;12.74
70819;BMP280;58439;51.046;13.692;2022-09-13T00:43:19;99829.22;;;12.70
70819;BMP280;58439;51.046;13.692;2022-09-13T00:51:10;99812.69;;;12.70
70819;BMP280;58439;51.046;13.692;2022-09-13T00:54:21;99815.91;;;12.72
70819;BMP280;58439;51.046;13.692;2022-09-13T00:57:00;99807.44;;;12.70
70819;BMP280;58439;51.046;13.692;2022-09-13T01:00:03;99800.22;;;12.65
70819;BMP280;58439;51.046;13.692;2022-09-13T01:03:15;99810.25;;;12.68
70819;BMP280;58439;51.046;13.692;2022-09-13T01:05:54;99812.28;;;12.73
70819;BMP280;58439;51.046;13.692;2022-09-13T01:08:23;99803.41;;;12.67
70819;BMP280;58439;51.046;13.692;2022-09-13T01:11:15;99802.22;;;12.63
70819;BMP280;58439;51.046;13.692;2022-09-13T01:13:46;99795.97;;;12.64
70819;BMP280;58439;51.046;13.692;2022-09-13T01:16:13;99792.34;;;12.65
70819;BMP280;58439;51.046;13.692;2022-09-13T01:18:49;99794.34;;;12.63
70819;BMP280;58439;51.046;13.692;2022-09-13T01:25:13;99776.84;;;12.57
70819;BMP280;58439;51.046;13.692;2022-09-13T01:28:38;99779.28;;;12.52
70819;BMP280;58439;51.046;13.692;2022-09-13T01:31:40;99774.06;;;12.52
70819;BMP280;58439;51.046;13.692;2022-09-13T01:35:04;99770.19;;;12.55
70819;BMP280;58439;51.046;13.692;2022-09-13T01:37:56;99763.78;;;12.51
70819;BMP280;58439;51.046;13.692;2022-09-13T01:41:07;99764.78;;;12.50
70819;BMP280;58439;51.046;13.692;2022-09-13T01:50:37;99752.34;;;12.38
70819;BMP280;58439;51.046;13.692;2022-09-13T01:53:57;99751.75;;;12.36
70819;BMP280;58439;51.046;13.692;2022-09-13T01:57:04;99745.69;;;12.36
70819;BMP280;58439;51.046;13.692;2022-09-13T02:00:17;99743.47;;;12.33
70819;BMP280;58439;51.046;13.692;2022-09-13T02:03:25;99746.09;;;12.33
70819;BMP280;58439;51.046;13.692;2022-09-13T02:06:21;99742.31;;;12.29
70819;BMP280;58439;51.046;13.692;2022-09-13T02:09:33;99734.88;;;12.26
70819;BMP280;58439;51.046;13.692;2022-09-13T02:12:14;99732.47;;;12.24
70819;BMP280;58439;51.046;13.692;2022-09-13T02:14:54;99731.03;;;12.22
70819;BMP280;58439;51.046;13.692;2022-09-13T02:17:36;99730.25;;;12.21
70819;BMP280;58439;51.046;13.692;2022-09-13T02:20:16;99728.28;;;12.16
70819;BMP280;58439;51.046;13.692;2022-09-13T02:22:55;99733.72;;;12.15
70819;BMP280;58439;51.046;13.692;2022-09-13T02:25:29;99732.31;;;12.12
70819;BMP280;58439;51.046;13.692;2022-09-13T02:28:12;99725.31;;;12.06
70819;BMP280;58439;51.046;13.692;2022-09-13T02:30:51;99735.59;;;12.01
70819;BMP280;58439;51.046;13.692;2022-09-13T02:33:33;99726.75;;;12.02
70819;BMP280;58439;51.046;13.692;2022-09-13T02:36:12;99741.66;;;12.02
70819;BMP280;58439;51.046;13.692;2022-09-13T02:38:52;99732.00;;;12.02
70819;BMP280;58439;51.046;13.692;2022-09-13T02:41:55;99727.09;;;12.06
70819;BMP280;58439;51.046;13.692;2022-09-13T02:44:39;99725.47;;;12.11
70819;BMP280;58439;51.046;13.692;2022-09-13T02:48:05;99719.34;;;12.17
70819;BMP280;58439;51.046;13.692;2022-09-13T02:51:05;99717.34;;;12.20
70819;BMP280;58439;51.046;13.692;2022-09-13T02:53:50;99719.56;;;12.23
70819;BMP280;58439;51.046;13.692;2022-09-13T02:56:39;99719.56;;;12.23
70819;BMP280;58439;51.046;13.692;2022-09-13T02:59:19;99725.00;;;12.21
70819;BMP280;58439;51.046;13.692;2022-09-13T03:16:26;99708.59;;;12.32
70819;BMP280;58439;51.046;13.692;2022-09-13T03:19:17;99699.50;;;12.35
70819;BMP280;58439;51.046;13.692;2022-09-13T03:22:20;99690.47;;;12.31
70819;BMP280;58439;51.046;13.692;2022-09-13T03:33:55;99683.38;;;12.38
70819;BMP280;58439;51.046;13.692;2022-09-13T03:36:52;99667.38;;;12.39
70819;BMP280;58439;51.046;13.692;2022-09-13T03:39:49;99666.16;;;12.42
70819;BMP280;58439;51.046;13.692;2022-09-13T03:42:33;99663.72;;;12.40
70819;BMP280;58439;51.046;13.692;2022-09-13T03:45:06;99664.19;;;12.37
70819;BMP280;58439;51.046;13.692;2022-09-13T03:47:36;99665.41;;;12.35
70819;BMP280;58439;51.046;13.692;2022-09-13T03:50:09;99672.25;;;12.36
70819;BMP280;58439;51.046;13.692;2022-09-13T03:52:37;99666.44;;;12.34
70819;BMP280;58439;51.046;13.692;2022-09-13T03:55:08;99667.41;;;12.33
70819;BMP280;58439;51.046;13.692;2022-09-13T03:57:36;99667.41;;;12.33
70819;BMP280;58439;51.046;13.692;2022-09-13T04:00:04;99664.25;;;12.31
70819;BMP280;58439;51.046;13.692;2022-09-13T04:02:37;99669.09;;;12.27
70819;BMP280;58439;51.046;13.692;2022-09-13T04:05:07;99671.34;;;12.24
70819;BMP280;58439;51.046;13.692;2022-09-13T04:07:35;99678.19;;;12.25
70819;BMP280;58439;51.046;13.692;2022-09-13T04:10:02;99679.22;;;12.24
70819;BMP280;58439;51.046;13.692;2022-09-13T04:12:38;99675.19;;;12.21
70819;BMP280;58439;51.046;13.692;2022-09-13T04:15:08;99665.13;;;12.18
70819;BMP280;58439;51.046;13.692;2022-09-13T04:17:35;99667.16;;;12.16
70819;BMP280;58439;51.046;13.692;2022-09-13T04:20:03;99669.13;;;12.21
70819;BMP280;58439;51.046;13.692;2022-09-13T04:22:32;99670.91;;;12.27
70819;BMP280;58439;51.046;13.692;2022-09-13T04:24:59;99668.28;;;12.27
70819;BMP280;58439;51.046;13.692;2022-09-13T04:27:32;99665.44;;;12.28
70819;BMP280;58439;51.046;13.692;2022-09-13T04:30:28;99662.38;;;12.38
70819;BMP280;58439;51.046;13.692;2022-09-13T04:32:58;99656.09;;;12.39
70819;BMP280;58439;51.046;13.692;2022-09-13T04:35:26;99656.09;;;12.39
70819;BMP280;58439;51.046;13.692;2022-09-13T04:37:56;99659.28;;;12.41
70819;BMP280;58439;51.046;13.692;2022-09-13T04:40:24;99664.13;;;12.44
70819;BMP280;58439;51.046;13.692;2022-09-13T04:42:51;99659.09;;;12.42
70819;BMP280;58439;51.046;13.692;2022-09-13T04:45:18;99667.34;;;12.46
70819;BMP280;58439;51.046;13.692;2022-09-13T04:47:54;99664.28;;;12.49
70819;BMP280;58439;51.046;13.692;2022-09-13T04:50:24;99661.03;;;12.54
70819;BMP280;58439;51.046;13.692;2022-09-13T04:52:54;99668.69;;;12.55
70819;BMP280;58439;51.046;13.692;2022-09-13T04:55:26;99664.03;;;12.57
70819;BMP280;58439;51.046;13.692;2022-09-13T04:57:56;99654.72;;;12.61
70819;BMP280;58439;51.046;13.692;2022-09-13T05:00:24;99655.66;;;12.67
70819;BMP280;58439;51.046;13.692;2022-09-13T05:02:55;99652.81;;;12.68
70819;BMP280;58439;51.046;13.692;2022-09-13T05:05:25;99654.97;;;12.78
70819;BMP280;58439;51.046;13.692;2022-09-13T05:07:56;99655.31;;;12.82
70819;BMP280;58439;51.046;13.692;2022-09-13T05:10:28;99658.69;;;12.89
70819;BMP280;58439;51.046;13.692;2022-09-13T05:12:56;99658.81;;;12.94
70819;BMP280;58439;51.046;13.692;2022-09-13T05:15:25;99657.78;;;12.95
70819;BMP280;58439;51.046;13.692;2022-09-13T05:21:34;99645.06;;;13.17
70819;BMP280;58439;51.046;13.692;2022-09-13T05:32:57;99629.91;;;13.49
70819;BMP280;58439;51.046;13.692;2022-09-13T05:41:52;99630.56;;;13.74
70819;BMP280;58439;51.046;13.692;2022-09-13T05:45:22;99626.41;;;14.08
70819;BMP280;58439;51.046;13.692;2022-09-13T05:48:03;99627.94;;;14.28
70819;BMP280;58439;51.046;13.692;2022-09-13T05:50:45;99622.50;;;14.34
70819;BMP280;58439;51.046;13.692;2022-09-13T05:53:24;99613.84;;;14.34
70819;BMP280;58439;51.046;13.692;2022-09-13T05:55:58;99601.84;;;14.26
70819;BMP280;58439;51.046;13.692;2022-09-13T05:58:53;99603.66;;;14.26
70819;BMP280;58439;51.046;13.692;2022-09-13T06:04:49;99604.13;;;14.46
70819;BMP280;58439;51.046;13.692;2022-09-13T06:14:53;99602.28;;;15.39
70819;BMP280;58439;51.046;13.692;2022-09-13T06:17:21;99598.31;;;15.70
70819;BMP280;58439;51.046;13.692;2022-09-13T06:19:48;99588.34;;;16.05
70819;BMP280;58439;51.046;13.692;2022-09-13T06:22:23;99590.78;;;16.50
70819;BMP280;58439;51.046;13.692;2022-09-13T06:25:09;99589.88;;;16.83
70819;BMP280;58439;51.046;13.692;2022-09-13T06:28:00;99585.75;;;16.93
70819;BMP280;58439;51.046;13.692;2022-09-13T06:30:40;99580.91;;;16.84
70819;BMP280;58439;51.046;13.692;2022-09-13T06:33:11;99583.38;;;16.96
70819;BMP280;58439;51.046;13.692;2022-09-13T06:36:09;99587.28;;;16.89
70819;BMP280;58439;51.046;13.692;2022-09-13T06:38:41;99592.38;;;16.95
70819;BMP280;58439;51.046;13.692;2022-09-13T06:53:32;99593.19;;;18.44
70819;BMP280;58439;51.046;13.692;2022-09-13T07:11:28;99584.34;;;18.81
70819;BMP280;58439;51.046;13.692;2022-09-13T07:13:58;99578.25;;;18.95
70819;BMP280;58439;51.046;13.692;2022-09-13T07:16:31;99575.63;;;19.16
70819;BMP280;58439;51.046;13.692;2022-09-13T07:19:14;99571.13;;;19.47
70819;BMP280;58439;51.046;13.692;2022-09-13T07:21:43;99562.59;;;19.75
70819;BMP280;58439;51.046;13.692;2022-09-13T07:24:13;99562.53;;;20.01
70819;BMP280;58439;51.046;13.692;2022-09-13T07:26:41;99562.03;;;19.88
70819;BMP280;58439;51.046;13.692;2022-09-13T07:29:13;99576.00;;;20.14
70819;BMP280;58439;51.046;13.692;2022-09-13T07:31:46;99569.47;;;20.56
70819;BMP280;58439;51.046;13.692;2022-09-13T07:34:20;99581.78;;;20.81
70819;BMP280;58439;51.046;13.692;2022-09-13T07:36:48;99584.63;;;20.95
70819;BMP280;58439;51.046;13.692;2022-09-13T07:39:17;99588.22;;;20.75
70819;BMP280;58439;51.046;13.692;2022-09-13T07:41:50;99576.94;;;20.44
70819;BMP280;58439;51.046;13.692;2022-09-13T07:44:18;99581.06;;;20.06
70819;BMP280;58439;51.046;13.692;2022-09-13T07:47:25;99577.75;;;19.49
70819;BMP280;58439;51.046;13.692;2022-09-13T07:51:08;99582.25;;;18.93
70819;BMP280;58439;51.046;13.692;2022-09-13T07:53:39;99586.38;;;18.63
70819;BMP280;58439;51.046;13.692;2022-09-13T07:56:13;99586.38;;;18.53
70819;BMP280;58439;51.046;13.692;2022-09-13T07:58:47;99585.53;;;18.48
70819;BMP280;58439;51.046;13.692;2022-09-13T08:01:22;99594.00;;;18.45
70819;BMP280;58439;51.046;13.692;2022-09-13T08:03:52;99598.50;;;18.44
70819;BMP280;58439;51.046;13.692;2022-09-13T08:06:25;99596.34;;;18.36
70819;BMP280;58439;51.046;13.692;2022-09-13T08:08:56;99598.88;;;18.16
70819;BMP280;58439;51.046;13.692;2022-09-13T08:11:38;99602.53;;;18.04
70819;BMP280;58439;51.046;13.692;2022-09-13T08:14:11;99602.78;;;17.98
70819;BMP280;58439;51.046;13.692;2022-09-13T08:16:40;99603.53;;;17.93
70819;BMP280;58439;51.046;13.692;2022-09-13T08:19:33;99605.38;;;17.93
70819;BMP280;58439;51.046;13.692;2022-09-13T08:22:12;99602.16;;;18.28
70819;BMP280;58439;51.046;13.692;2022-09-13T08:26:39;99611.09;;;18.89
70819;BMP280;58439;51.046;13.692;2022-09-13T08:34:19;99624.59;;;20.20
70819;BMP280;58439;51.046;13.692;2022-09-13T08:37:58;99615.66;;;19.96
70819;BMP280;58439;51.046;13.692;2022-09-13T08:40:40;99617.00;;;19.62
70819;BMP280;58439;51.046;13.692;2022-09-13T08:43:38;99612.25;;;19.34
70819;BMP280;58439;51.046;13.692;2022-09-13T08:46:36;99619.16;;;19.25
70819;BMP280;58439;51.046;13.692;2022-09-13T09:04:48;99610.63;;;19.74
70819;BMP280;58439;51.046;13.692;2022-09-13T09:07:46;99615.13;;;19.78
70819;BMP280;58439;51.046;13.692;2022-09-13T09:10:59;99611.66;;;19.88
70819;BMP280;58439;51.046;13.692;2022-09-13T09:14:33;99602.34;;;20.11
70819;BMP280;58439;51.046;13.692;2022-09-13T09:17:59;99589.31;;;20.09
70819;BMP280;58439;51.046;13.692;2022-09-13T09:20:53;99579.69;;;20.23
70819;BMP280;58439;51.046;13.692;2022-09-13T09:24:26;99575.13;;;20.34
70819;BMP280;58439;51.046;13.692;2022-09-13T09:26:56;99581.75;;;20.47
70819;BMP280;58439;51.046;13.692;2022-09-13T09:29:31;99577.19;;;20.92
70819;BMP280;58439;51.046;13.692;2022-09-13T09:39:29;99582.28;;;23.11
70819;BMP280;58439;51.046;13.692;2022-09-13T09:42:00;99572.03;;;23.18
70819;BMP280;58439;51.046;13.692;2022-09-13T09:44:42;99577.69;;;23.31
70819;BMP280;58439;51.046;13.692;2022-09-13T09:47:25;99575.41;;;23.24
70819;BMP280;58439;51.046;13.692;2022-09-13T09:50:15;99572.13;;;23.41
70819;BMP280;58439;51.046;13.692;2022-09-13T09:53:18;99564.69;;;24.06
70819;BMP280;58439;51.046;13.692;2022-09-13T09:58:58;99554.53;;;24.44
70819;BMP280;58439;51.046;13.692;2022-09-13T10:01:31;99543.44;;;24.60
70819;BMP280;58439;51.046;13.692;2022-09-13T10:04:20;99554.59;;;24.39
70819;BMP280;58439;51.046;13.692;2022-09-13T10:27:57;99512.47;;;26.67
70819;BMP280;58439;51.046;13.692;2022-09-13T10:30:45;99511.09;;;26.99
70819;BMP280;58439;51.046;13.692;2022-09-13T10:33:32;99505.78;;;26.82
70819;BMP280;58439;51.046;13.692;2022-09-13T10:36:15;99500.59;;;26.13
70819;BMP280;58439;51.046;13.692;2022-09-13T10:39:16;99503.56;;;25.77
70819;BMP280;58439;51.046;13.692;2022-09-13T10:41:56;99495.78;;;25.41
70819;BMP280;58439;51.046;13.692;2022-09-13T10:44:37;99498.56;;;26.10
70819;BMP280;58439;51.046;13.692;2022-09-13T10:47:13;99493.38;;;27.57
70819;BMP280;58439;51.046;13.692;2022-09-13T10:49:54;99496.19;;;31.75
70819;BMP280;58439;51.046;13.692;2022-09-13T10:52:52;99491.19;;;32.98
70819;BMP280;58439;51.046;13.692;2022-09-13T10:55:35;99484.16;;;32.41
70819;BMP280;58439;51.046;13.692;2022-09-13T11:10:52;99484.84;;;35.36
70819;BMP280;58439;51.046;13.692;2022-09-13T11:25:48;99475.91;;;35.35
70819;BMP280;58439;51.046;13.692;2022-09-13T11:28:39;99475.16;;;36.13
70819;BMP280;58439;51.046;13.692;2022-09-13T11:31:45;99468.84;;;36.41
70819;BMP280;58439;51.046;13.692;2022-09-13T11:34:40;99467.00;;;35.77
70819;BMP280;58439;51.046;13.692;2022-09-13T11:37:32;99467.38;;;35.90
70819;BMP280;58439;51.046;13.692;2022-09-13T11:43:35;99456.75;;;37.22
70819;BMP280;58439;51.046;13.692;2022-09-13T11:55:30;99454.94;;;35.64
70819;BMP280;58439;51.046;13.692;2022-09-13T11:58:12;99455.41;;;34.51
70819;BMP280;58439;51.046;13.692;2022-09-13T12:00:54;99447.06;;;33.01
70819;BMP280;58439;51.046;13.692;2022-09-13T12:07:56;99442.06;;;33.77
70819;BMP280;58439;51.046;13.692;2022-09-13T12:14:54;99447.56;;;30.32
70819;BMP280;58439;51.046;13.692;2022-09-13T12:17:35;99438.28;;;29.42
70819;BMP280;58439;51.046;13.692;2022-09-13T12:21:11;99436.47;;;30.68
70819;BMP280;58439;51.046;13.692;2022-09-13T12:30:44;99417.28;;;33.05
70819;BMP280;58439;51.046;13.692;2022-09-13T12:33:26;99418.84;;;33.43
70819;BMP280;58439;51.046;13.692;2022-09-13T12:42:39;99427.56;;;31.03
70819;BMP280;58439;51.046;13.692;2022-09-13T12:52:31;99408.28;;;29.03
70819;BMP280;58439;51.046;13.692;2022-09-13T12:58:53;99399.97;;;28.44
70819;BMP280;58439;51.046;13.692;2022-09-13T13:01:25;99397.38;;;28.60
70819;BMP280;58439;51.046;13.692;2022-09-13T13:04:33;99397.69;;;28.83
70819;BMP280;58439;51.046;13.692;2022-09-13T13:07:15;99395.88;;;28.02
70819;BMP280;58439;51.046;13.692;2022-09-13T13:09:52;99397.00;;;28.13
70819;BMP280;58439;51.046;13.692;2022-09-13T13:12:41;99398.63;;;28.62
70819;BMP280;58439;51.046;13.692;2022-09-13T13:17:54;99386.16;;;29.82
70819;BMP280;58439;51.046;13.692;2022-09-13T13:21:21;99397.44;;;31.43
70819;BMP280;58439;51.046;13.692;2022-09-13T13:23:38;99393.31;;;31.72
70819;BMP280;58439;51.046;13.692;2022-09-13T13:31:35;99401.38;;;38.07
70819;BMP280;58439;51.046;13.692;2022-09-13T13:50:17;99381.50;;;32.06
70819;BMP280;58439;51.046;13.692;2022-09-13T14:01:46;99382.75;;;28.85
70819;BMP280;58439;51.046;13.692;2022-09-13T14:17:06;99370.84;;;26.73
70819;BMP280;58439;51.046;13.692;2022-09-13T14:19:49;99363.34;;;26.87
70819;BMP280;58439;51.046;13.692;2022-09-13T14:22:25;99365.47;;;27.23
70819;BMP280;58439;51.046;13.692;2022-09-13T14:24:57;99353.47;;;27.20
70819;BMP280;58439;51.046;13.692;2022-09-13T14:28:16;99347.69;;;26.89
70819;BMP280;58439;51.046;13.692;2022-09-13T14:31:34;99353.91;;;26.51
70819;BMP280;58439;51.046;13.692;2022-09-13T14:34:30;99347.91;;;26.16
70819;BMP280;58439;51.046;13.692;2022-09-13T14:37:13;99349.66;;;26.12
70819;BMP280;58439;51.046;13.692;2022-09-13T14:40:17;99352.22;;;25.92
70819;BMP280;58439;51.046;13.692;2022-09-13T14:42:49;99349.44;;;25.62
70819;BMP280;58439;51.046;13.692;2022-09-13T14:52:09;99344.78;;;24.85
70819;BMP280;58439;51.046;13.692;2022-09-13T15:01:39;99338.03;;;24.39
70819;BMP280;58439;51.046;13.692;2022-09-13T15:05:00;99333.81;;;24.47
70819;BMP280;58439;51.046;13.692;2022-09-13T15:07:36;99334.44;;;24.44
70819;BMP280;58439;51.046;13.692;2022-09-13T15:10:42;99339.63;;;24.49
70819;BMP280;58439;51.046;13.692;2022-09-13T15:17:12;99333.19;;;24.41
70819;BMP280;58439;51.046;13.692;2022-09-13T15:20:10;99341.44;;;24.62
70819;BMP280;58439;51.046;13.692;2022-09-13T15:22:41;99343.94;;;24.59
70819;BMP280;58439;51.046;13.692;2022-09-13T15:25:26;99341.56;;;24.57
70819;BMP280;58439;51.046;13.692;2022-09-13T15:28:23;99341.38;;;24.54
70819;BMP280;58439;51.046;13.692;2022-09-13T15:30:58;99343.31;;;24.62
70819;BMP280;58439;51.046;13.692;2022-09-13T15:33:43;99354.19;;;24.65
70819;BMP280;58439;51.046;13.692;2022-09-13T15:36:27;99345.50;;;24.60
70819;BMP280;58439;51.046;13.692;2022-09-13T15:39:24;99340.59;;;24.53
70819;BMP280;58439;51.046;13.692;2022-09-13T15:41:59;99335.25;;;24.44
70819;BMP280;58439;51.046;13.692;2022-09-13T15:44:28;99344.50;;;24.38
70819;BMP280;58439;51.046;13.692;2022-09-13T15:47:01;99334.06;;;24.28
70819;BMP280;58439;51.046;13.692;2022-09-13T15:49:33;99336.38;;;24.21
70819;BMP280;58439;51.046;13.692;2022-09-13T15:52:18;99341.41;;;24.23
70819;BMP280;58439;51.046;13.692;2022-09-13T15:54:50;99333.88;;;24.25
70819;BMP280;58439;51.046;13.692;2022-09-13T15:57:25;99321.00;;;24.35
70819;BMP280;58439;51.046;13.692;2022-09-13T16:00:26;99333.00;;;24.38
70819;BMP280;58439;51.046;13.692;2022-09-13T16:03:21;99334.84;;;24.29
70819;BMP280;58439;51.046;13.692;2022-09-13T16:06:06;99334.06;;;24.28
70819;BMP280;58439;51.046;13.692;2022-09-13T16:08:51;99333.81;;;24.16
70819;BMP280;58439;51.046;13.692;2022-09-13T16:11:19;99334.22;;;24.01
70819;BMP280;58439;51.046;13.692;2022-09-13T16:13:53;99333.88;;;23.94
70819;BMP280;58439;51.046;13.692;2022-09-13T16:16:42;99329.56;;;23.84
70819;BMP280;58439;51.046;13.692;2022-09-13T16:25:28;99319.72;;;23.71
70819;BMP280;58439;51.046;13.692;2022-09-13T16:28:23;99323.88;;;23.63
70819;BMP280;58439;51.046;13.692;2022-09-13T16:30:52;99331.06;;;23.54
70819;BMP280;58439;51.046;13.692;2022-09-13T16:33:24;99330.69;;;23.47
70819;BMP280;58439;51.046;13.692;2022-09-13T16:35:55;99328.13;;;23.42
70819;BMP280;58439;51.046;13.692;2022-09-13T16:38:29;99336.34;;;23.32
70819;BMP280;58439;51.046;13.692;2022-09-13T16:41:12;99335.78;;;23.21
70819;BMP280;58439;51.046;13.692;2022-09-13T16:43:40;99326.91;;;23.12
70819;BMP280;58439;51.046;13.692;2022-09-13T16:46:30;99325.44;;;23.06
70819;BMP280;58439;51.046;13.692;2022-09-13T16:48:59;99322.06;;;23.00
70819;BMP280;58439;51.046;13.692;2022-09-13T16:51:33;99324.28;;;22.98
70819;BMP280;58439;51.046;13.692;2022-09-13T16:54:02;99316.34;;;22.93
70819;BMP280;58439;51.046;13.692;2022-09-13T16:56:33;99323.09;;;22.91
70819;BMP280;58439;51.046;13.692;2022-09-13T16:59:02;99330.38;;;22.85
70819;BMP280;58439;51.046;13.692;2022-09-13T17:01:34;99323.06;;;22.77
70819;BMP280;58439;51.046;13.692;2022-09-13T17:04:06;99327.22;;;22.69
70819;BMP280;58439;51.046;13.692;2022-09-13T17:06:41;99323.09;;;22.63
70819;BMP280;58439;51.046;13.692;2022-09-13T17:09:10;99317.03;;;22.58
70819;BMP280;58439;51.046;13.692;2022-09-13T17:11:41;99313.97;;;22.50
70819;BMP280;58439;51.046;13.692;2022-09-13T17:14:13;99314.38;;;22.44
70819;BMP280;58439;51.046;13.692;2022-09-13T17:16:48;99320.09;;;22.37
70819;BMP280;58439;51.046;13.692;2022-09-13T17:19:25;99307.75;;;22.28
70819;BMP280;58439;51.046;13.692;2022-09-13T17:21:53;99303.09;;;22.19
70819;BMP280;58439;51.046;13.692;2022-09-13T17:25:24;99309.72;;;22.03
70819;BMP280;58439;51.046;13.692;2022-09-13T17:29:47;99318.13;;;21.78
70819;BMP280;58439;51.046;13.692;2022-09-13T17:34:14;99315.47;;;21.59
70819;BMP280;58439;51.046;13.692;2022-09-13T17:40:34;99301.06;;;21.60
70819;BMP280;58439;51.046;13.692;2022-09-13T17:44:02;99314.69;;;21.59
70819;BMP280;58439;51.046;13.692;2022-09-13T17:47:04;99311.03;;;21.54
70819;BMP280;58439;51.046;13.692;2022-09-13T17:49:48;99299.16;;;21.47
70819;BMP280;58439;51.046;13.692;2022-09-13T17:52:18;99304.63;;;21.37
70819;BMP280;58439;51.046;13.692;2022-09-13T17:55:00;99295.78;;;21.23
70819;BMP280;58439;51.046;13.692;2022-09-13T17:57:48;99302.84;;;21.08
70819;BMP280;58439;51.046;13.692;2022-09-13T18:00:30;99308.28;;;20.98
70819;BMP280;58439;51.046;13.692;2022-09-13T18:15:59;99295.06;;;20.40
70819;BMP280;58439;51.046;13.692;2022-09-13T18:18:28;99292.47;;;20.35
70819;BMP280;58439;51.046;13.692;2022-09-13T18:20:56;99289.28;;;20.33
70819;BMP280;58439;51.046;13.692;2022-09-13T18:23:28;99298.09;;;20.29
70819;BMP280;58439;51.046;13.692;2022-09-13T18:26:04;99298.72;;;20.20
70819;BMP280;58439;51.046;13.692;2022-09-13T18:28:37;99301.19;;;20.12
70819;BMP280;58439;51.046;13.692;2022-09-13T18:31:13;99310.22;;;20.06
70819;BMP280;58439;51.046;13.692;2022-09-13T18:33:44;99297.56;;;19.98
70819;BMP280;58439;51.046;13.692;2022-09-13T18:36:24;99292.59;;;19.91
70819;BMP280;58439;51.046;13.692;2022-09-13T18:38:56;99287.81;;;19.88
70819;BMP280;58439;51.046;13.692;2022-09-13T18:41:26;99291.28;;;19.83
70819;BMP280;58439;51.046;13.692;2022-09-13T18:43:56;99290.25;;;19.79
70819;BMP280;58439;51.046;13.692;2022-09-13T18:46:28;99291.84;;;19.80
70819;BMP280;58439;51.046;13.692;2022-09-13T18:49:03;99296.03;;;19.86
70819;BMP280;58439;51.046;13.692;2022-09-13T18:51:41;99291.00;;;19.85
70819;BMP280;58439;51.046;13.692;2022-09-13T18:54:16;99294.47;;;19.85
70819;BMP280;58439;51.046;13.692;2022-09-13T18:56:46;99299.22;;;19.88
70819;BMP280;58439;51.046;13.692;2022-09-13T18:59:14;99295.25;;;19.86
70819;BMP280;58439;51.046;13.692;2022-09-13T19:01:43;99302.44;;;19.85
70819;BMP280;58439;51.046;13.692;2022-09-13T19:04:18;99304.28;;;19.85
70819;BMP280;58439;51.046;13.692;2022-09-13T19:06:50;99300.56;;;19.86
70819;BMP280;58439;51.046;13.692;2022-09-13T19:09:23;99298.69;;;19.86
70819;BMP280;58439;51.046;13.692;2022-09-13T19:11:52;99300.00;;;19.89
70819;BMP280;58439;51.046;13.692;2022-09-13T19:14:39;99300.81;;;19.89
70819;BMP280;58439;51.046;13.692;2022-09-13T19:17:14;99300.00;;;19.89
70819;BMP280;58439;51.046;13.692;2022-09-13T19:19:42;99303.22;;;19.91
70819;BMP280;58439;51.046;13.692;2022-09-13T19:22:11;99327.09;;;19.86
70819;BMP280;58439;51.046;13.692;2022-09-13T19:24:38;99333.88;;;20.02
70819;BMP280;58439;51.046;13.692;2022-09-13T19:27:11;99330.25;;;19.93
70819;BMP280;58439;51.046;13.692;2022-09-13T19:29:40;99331.13;;;19.78
70819;BMP280;58439;51.046;13.692;2022-09-13T19:35:50;99343.44;;;19.59
70819;BMP280;58439;51.046;13.692;2022-09-13T19:52:06;99331.72;;;19.11
70819;BMP280;58439;51.046;13.692;2022-09-13T19:54:37;99334.63;;;18.99
70819;BMP280;58439;51.046;13.692;2022-09-13T19:57:06;99344.72;;;18.92
70819;BMP280;58439;51.046;13.692;2022-09-13T19:59:39;99337.59;;;18.87
70819;BMP280;58439;51.046;13.692;2022-09-13T20:02:23;99340.53;;;18.81
70819;BMP280;58439;51.046;13.692;2022-09-13T20:06:11;99334.47;;;18.70
70819;BMP280;58439;51.046;13.692;2022-09-13T20:08:44;99342.66;;;18.68
70819;BMP280;58439;51.046;13.692;2022-09-13T20:11:16;99346.63;;;18.66
70819;BMP280;58439;51.046;13.692;2022-09-13T20:13:47;99339.47;;;18.61
70819;BMP280;58439;51.046;13.692;2022-09-13T20:16:32;99343.47;;;18.59
70819;BMP280;58439;51.046;13.692;2022-09-13T20:19:36;99332.88;;;18.54
70819;BMP280;58439;51.046;13.692;2022-09-13T20:22:36;99333.41;;;18.56
70819;BMP280;58439;51.046;13.692;2022-09-13T20:25:46;99340.56;;;18.50
70819;BMP280;58439;51.046;13.692;2022-09-13T20:28:43;99343.19;;;18.35
70819;BMP280;58439;51.046;13.692;2022-09-13T20:32:01;99339.50;;;18.31
70819;BMP280;58439;51.046;13.692;2022-09-13T20:34:34;99341.06;;;18.27
70819;BMP280;58439;51.046;13.692;2022-09-13T20:37:32;99336.28;;;18.24
70819;BMP280;58439;51.046;13.692;2022-09-13T20:40:11;99342.66;;;18.18
70819;BMP280;58439;51.046;13.692;2022-09-13T20:43:12;99345.81;;;18.20
70819;BMP280;58439;51.046;13.692;2022-09-13T20:46:11;99345.81;;;18.15
70819;BMP280;58439;51.046;13.692;2022-09-13T20:48:54;99340.25;;;18.11
70819;BMP280;58439;51.046;13.692;2022-09-13T21:01:21;99338.44;;;18.27